createdAt,value
2019-05-13T00:01:30.475Z,2.92
2019-05-13T00:04:03.738Z,2.84
2019-05-13T00:06:50.216Z,2.78
2019-05-13T00:09:11.213Z,2.66
2019-05-13T00:11:44.530Z,2.59
2019-05-13T00:14:17.623Z,2.52
2019-05-13T00:16:50.576Z,2.52
2019-05-13T00:19:24.369Z,2.42
2019-05-13T00:21:57.927Z,2.23
2019-05-13T00:24:30.844Z,2.19
2019-05-13T00:27:04.314Z,2.16
2019-05-13T00:29:37.303Z,2.11
2019-05-13T00:32:10.219Z,2.11
2019-05-13T00:34:44.530Z,2.04
2019-05-13T00:37:17.636Z,2.04
2019-05-13T00:39:50.544Z,2.05
2019-05-13T00:42:24.497Z,2.05
2019-05-13T00:44:57.611Z,2.08
2019-05-13T00:47:30.579Z,2.12
2019-05-13T00:50:03.880Z,2.15
2019-05-13T00:52:37.187Z,2.14
2019-05-13T00:55:10.311Z,2.08
2019-05-13T00:57:43.835Z,2.08
2019-05-13T01:00:17.423Z,1.99
2019-05-13T01:02:50.662Z,1.93
2019-05-13T01:05:23.565Z,1.88
2019-05-13T01:07:56.860Z,1.86
2019-05-13T01:10:29.719Z,1.88
2019-05-13T01:13:04.657Z,1.89
2019-05-13T01:15:37.577Z,1.96
2019-05-13T01:18:10.464Z,1.96
2019-05-13T01:20:43.864Z,2.05
2019-05-13T01:23:16.971Z,2.05
2019-05-13T01:25:49.884Z,2.06
2019-05-13T01:28:23.939Z,2.04
2019-05-13T01:30:56.926Z,2.01
2019-05-13T01:33:29.788Z,1.97
2019-05-13T01:36:05.221Z,1.96
2019-05-13T01:38:37.449Z,1.93
2019-05-13T01:41:10.415Z,1.93
2019-05-13T01:43:44.105Z,1.91
2019-05-13T01:46:17.147Z,1.91
2019-05-13T01:48:50.090Z,1.93
2019-05-13T01:51:23.986Z,1.89
2019-05-13T01:53:56.891Z,1.87
2019-05-13T01:56:29.759Z,1.82
2019-05-13T01:59:03.608Z,1.77
2019-05-13T02:01:37.247Z,1.77
2019-05-13T02:04:10.157Z,1.63
2019-05-13T02:06:44.297Z,1.61
2019-05-13T02:09:17.560Z,1.57
2019-05-13T02:11:50.473Z,1.52
2019-05-13T02:14:23.761Z,1.52
2019-05-13T02:16:57.199Z,1.37
2019-05-13T02:19:30.084Z,1.37
2019-05-13T02:22:03.964Z,1.33
2019-05-13T02:24:37.520Z,1.33
2019-05-13T02:27:10.449Z,1.25
2019-05-13T02:29:44.043Z,1.26
2019-05-13T02:32:17.103Z,1.23
2019-05-13T02:34:53.074Z,1.20
2019-05-13T02:37:29.223Z,1.20
2019-05-13T02:40:03.480Z,1.21
2019-05-13T02:42:34.661Z,1.20
2019-05-13T02:45:07.718Z,1.18
2019-05-13T02:47:44.081Z,1.19
2019-05-13T02:50:17.151Z,1.19
2019-05-13T02:52:52.959Z,1.21
2019-05-13T02:55:25.081Z,1.22
2019-05-13T02:57:58.051Z,1.25
2019-05-13T03:00:32.899Z,1.28
2019-05-13T03:03:05.801Z,1.28
2019-05-13T03:05:38.769Z,1.30
2019-05-13T03:08:12.763Z,1.31
2019-05-13T03:10:46.096Z,1.33
2019-05-13T03:13:19.072Z,1.35
2019-05-13T03:15:52.408Z,1.35
2019-05-13T03:18:25.359Z,1.35
2019-05-13T03:20:58.362Z,1.29
2019-05-13T03:23:32.958Z,1.29
2019-05-13T03:26:06.482Z,1.23
2019-05-13T03:28:39.435Z,1.25
2019-05-13T03:31:16.753Z,1.25
2019-05-13T03:33:47.844Z,1.23
2019-05-13T03:36:26.104Z,1.23
2019-05-13T03:39:05.695Z,1.19
2019-05-13T03:41:34.177Z,1.14
2019-05-13T03:44:13.486Z,1.06
2019-05-13T03:46:48.112Z,1.08
2019-05-13T03:49:24.101Z,1.11
2019-05-13T03:51:57.049Z,1.11
2019-05-13T03:54:32.746Z,1.10
2019-05-13T03:57:06.035Z,1.07
2019-05-13T03:59:43.334Z,1.15
2019-05-13T04:02:14.724Z,1.16
2019-05-13T04:04:47.787Z,1.14
2019-05-13T04:07:23.768Z,1.14
2019-05-13T04:09:55.790Z,1.29
2019-05-13T04:12:28.781Z,1.34
2019-05-13T04:15:03.493Z,1.34
2019-05-13T04:17:37.024Z,1.36
2019-05-13T04:20:12.659Z,1.39
2019-05-13T04:22:45.370Z,1.47
2019-05-13T04:25:18.291Z,1.47
2019-05-13T04:27:52.447Z,1.59
2019-05-13T04:30:25.468Z,1.59
2019-05-13T04:32:58.648Z,1.64
2019-05-13T04:35:33.618Z,1.70
2019-05-13T04:38:10.259Z,1.80
2019-05-13T04:40:42.394Z,1.87
2019-05-13T04:43:15.956Z,1.92
2019-05-13T04:45:52.243Z,1.92
2019-05-13T04:48:24.189Z,2.15
2019-05-13T04:50:57.262Z,2.29
2019-05-13T04:53:33.218Z,2.40
2019-05-13T04:56:05.083Z,2.50
2019-05-13T04:58:38.175Z,2.58
2019-05-13T05:01:52.277Z,2.67
2019-05-13T05:04:30.533Z,2.67
2019-05-13T05:07:12.809Z,2.87
2019-05-13T05:10:25.941Z,2.93
2019-05-13T05:12:57.935Z,2.93
2019-05-13T05:15:52.581Z,3.06
2019-05-13T05:19:02.263Z,3.17
2019-05-13T05:21:43.536Z,3.17
2019-05-13T05:25:06.734Z,3.37
2019-05-13T05:28:15.231Z,3.54
2019-05-13T05:31:26.120Z,3.54
2019-05-13T05:34:35.633Z,3.79
2019-05-13T05:37:22.350Z,3.87
2019-05-13T05:39:56.863Z,3.87
2019-05-13T05:42:32.218Z,3.91
2019-05-13T05:45:06.654Z,3.95
2019-05-13T05:47:41.947Z,4.13
2019-05-13T05:50:15.093Z,4.30
2019-05-13T05:52:51.354Z,4.39
2019-05-13T05:55:27.387Z,4.47
2019-05-13T05:58:02.301Z,4.47
2019-05-13T06:00:37.671Z,4.60
2019-05-13T06:03:13.840Z,4.65
2019-05-13T06:05:47.032Z,4.70
2019-05-13T06:08:22.080Z,4.73
2019-05-13T06:10:55.017Z,4.82
2019-05-13T06:13:28.438Z,4.98
2019-05-13T06:16:01.890Z,5.07
2019-05-13T06:18:34.991Z,5.16
2019-05-13T06:21:08.216Z,5.29
2019-05-13T06:23:41.932Z,5.29
2019-05-13T06:26:14.991Z,5.56
2019-05-13T06:28:48.030Z,5.56
2019-05-13T06:31:21.679Z,5.65
2019-05-13T06:33:54.987Z,5.74
2019-05-13T06:36:28.146Z,5.79
2019-05-13T06:39:02.424Z,6.05
2019-05-13T06:41:35.834Z,6.27
2019-05-13T06:44:08.874Z,6.37
2019-05-13T06:46:42.447Z,6.51
2019-05-13T06:49:15.512Z,6.69
2019-05-13T06:51:48.702Z,6.85
2019-05-13T06:54:22.116Z,7.03
2019-05-13T06:56:55.081Z,7.20
2019-05-13T06:59:28.076Z,7.32
2019-05-13T07:02:02.153Z,7.47
2019-05-13T07:04:35.359Z,7.56
2019-05-13T07:07:13.277Z,7.82
2019-05-13T07:09:43.198Z,8.09
2019-05-13T07:12:16.203Z,8.25
2019-05-13T07:14:51.155Z,8.47
2019-05-13T07:17:23.696Z,8.85
2019-05-13T07:19:56.884Z,8.85
2019-05-13T07:22:32.114Z,8.93
2019-05-13T07:25:04.728Z,9.09
2019-05-13T07:27:38.060Z,9.09
2019-05-13T07:30:11.495Z,9.16
2019-05-13T07:32:44.554Z,9.36
2019-05-13T07:35:17.570Z,9.36
2019-05-13T07:37:51.733Z,9.48
2019-05-13T07:40:25.227Z,9.53
2019-05-13T07:42:58.155Z,9.53
2019-05-13T07:45:31.665Z,9.71
2019-05-13T07:48:19.500Z,9.87
2019-05-13T07:50:55.562Z,10.30
2019-05-13T07:53:18.646Z,10.30
2019-05-13T07:55:49.572Z,10.48
2019-05-13T07:58:23.147Z,10.57
2019-05-13T08:00:56.327Z,11.04
2019-05-13T08:03:31.684Z,11.33
2019-05-13T08:06:04.383Z,11.33
2019-05-13T08:08:37.584Z,11.59
2019-05-13T08:11:12.694Z,12.73
2019-05-13T08:13:45.347Z,16.99
2019-05-13T08:16:18.391Z,16.99
2019-05-13T08:18:52.427Z,19.08
2019-05-13T08:21:25.427Z,19.55
2019-05-13T08:23:58.363Z,22.92
2019-05-13T08:26:32.288Z,22.92
2019-05-13T08:29:06.209Z,24.19
2019-05-13T08:31:41.197Z,24.83
2019-05-13T08:34:14.377Z,26.09
2019-05-13T08:36:47.664Z,26.03
2019-05-13T08:39:21.736Z,25.30
2019-05-13T08:41:54.842Z,25.30
2019-05-13T08:44:32.039Z,25.62
2019-05-13T08:47:04.088Z,25.62
2019-05-13T08:49:37.076Z,25.83
2019-05-13T08:52:12.068Z,25.83
2019-05-13T08:54:44.909Z,26.43
2019-05-13T08:57:18.222Z,25.64
2019-05-13T08:59:51.696Z,26.12
2019-05-13T09:02:25.079Z,26.49
2019-05-13T09:04:58.111Z,26.49
2019-05-13T09:07:32.054Z,27.24
2019-05-13T09:10:05.493Z,25.81
2019-05-13T09:12:41.005Z,28.86
2019-05-13T09:15:13.276Z,26.66
2019-05-13T09:17:46.211Z,26.66
2019-05-13T09:20:19.177Z,26.69
2019-05-13T09:22:52.202Z,27.54
2019-05-13T09:25:25.233Z,26.72
2019-05-13T09:27:58.205Z,27.30
2019-05-13T09:30:31.638Z,27.84
2019-05-13T09:33:04.755Z,28.65
2019-05-13T09:35:37.665Z,27.93
2019-05-13T09:38:12.691Z,27.93
2019-05-13T09:40:45.513Z,27.85
2019-05-13T09:43:18.557Z,27.85
2019-05-13T09:45:52.284Z,23.21
2019-05-13T09:48:25.800Z,24.82
2019-05-13T09:50:58.851Z,26.12
2019-05-13T09:53:32.745Z,26.12
2019-05-13T09:56:06.029Z,27.41
2019-05-13T09:58:38.927Z,28.05
2019-05-13T10:01:12.855Z,29.94
2019-05-13T10:03:56.996Z,27.58
2019-05-13T10:06:22.224Z,28.52
2019-05-13T10:08:55.438Z,28.13
2019-05-13T10:11:28.408Z,28.13
2019-05-13T10:14:02.077Z,28.99
2019-05-13T10:16:35.383Z,28.11
2019-05-13T10:19:08.481Z,28.11
2019-05-13T10:21:42.281Z,26.52
2019-05-13T10:24:15.697Z,26.32
2019-05-13T10:26:51.366Z,26.32
2019-05-13T10:29:23.665Z,25.28
2019-05-13T10:31:56.693Z,27.15
2019-05-13T10:34:32.137Z,27.15
2019-05-13T10:37:04.806Z,27.26
2019-05-13T10:39:38.046Z,27.02
2019-05-13T10:42:12.108Z,28.10
2019-05-13T10:44:45.332Z,29.38
2019-05-13T10:47:18.381Z,29.33
2019-05-13T10:49:52.361Z,29.33
2019-05-13T10:52:25.760Z,27.84
2019-05-13T10:54:58.668Z,28.26
2019-05-13T10:57:32.090Z,28.14
2019-05-13T11:00:05.887Z,29.63
2019-05-13T11:02:38.860Z,25.39
2019-05-13T11:05:12.532Z,25.39
2019-05-13T11:07:45.569Z,22.30
2019-05-13T11:10:22.627Z,23.80
2019-05-13T11:12:55.569Z,25.68
2019-05-13T11:15:32.831Z,25.68
2019-05-13T11:18:03.799Z,25.82
2019-05-13T11:20:37.271Z,25.82
2019-05-13T11:23:12.469Z,26.48
2019-05-13T11:25:45.132Z,24.59
2019-05-13T11:28:18.446Z,24.59
2019-05-13T11:30:52.188Z,24.22
2019-05-13T11:33:25.282Z,24.22
2019-05-13T11:35:58.161Z,22.24
2019-05-13T11:38:32.720Z,22.23
2019-05-13T11:41:05.655Z,23.22
2019-05-13T11:43:41.205Z,23.62
2019-05-13T11:46:13.376Z,24.28
2019-05-13T11:48:46.366Z,23.91
2019-05-13T11:51:19.626Z,26.35
2019-05-13T11:53:53.071Z,25.82
2019-05-13T11:56:26.566Z,26.53
2019-05-13T11:58:59.563Z,26.16
2019-05-13T12:04:07.119Z,24.62
2019-05-13T12:06:47.806Z,25.03
2019-05-13T12:09:14.632Z,25.03
2019-05-13T12:11:47.537Z,24.60
2019-05-13T12:14:43.101Z,24.83
2019-05-13T12:16:55.190Z,25.15
2019-05-13T12:19:28.060Z,25.50
2019-05-13T12:22:02.666Z,24.57
2019-05-13T12:24:35.701Z,24.57
2019-05-13T12:27:08.666Z,23.87
2019-05-13T12:29:43.326Z,24.15
2019-05-13T12:32:16.245Z,24.36
2019-05-13T12:34:51.834Z,25.49
2019-05-13T12:37:23.712Z,26.43
2019-05-13T12:39:56.717Z,24.66
2019-05-13T12:42:33.273Z,22.16
2019-05-13T12:45:09.841Z,23.13
2019-05-13T12:47:42.648Z,24.48
2019-05-13T12:50:14.668Z,23.85
2019-05-13T12:52:47.853Z,23.25
2019-05-13T12:55:21.772Z,19.62
2019-05-13T12:57:54.812Z,19.62
2019-05-13T13:00:27.902Z,21.76
2019-05-13T13:03:02.031Z,21.76
2019-05-13T13:05:37.027Z,23.31
2019-05-13T13:08:24.389Z,22.73
2019-05-13T13:10:45.009Z,23.61
2019-05-13T13:13:17.901Z,23.61
2019-05-13T13:15:52.786Z,24.30
2019-05-13T13:18:25.654Z,24.77
2019-05-13T13:21:05.181Z,25.03
2019-05-13T13:23:34.125Z,24.50
2019-05-13T13:26:15.317Z,24.50
2019-05-13T13:28:43.361Z,24.32
2019-05-13T13:31:16.697Z,24.48
2019-05-13T13:33:54.047Z,24.72
2019-05-13T13:36:24.495Z,24.90
2019-05-13T13:38:57.324Z,24.85
2019-05-13T13:41:32.787Z,25.15
2019-05-13T13:44:05.584Z,25.15
2019-05-13T13:46:44.612Z,23.16
2019-05-13T13:49:13.845Z,23.54
2019-05-13T13:51:46.680Z,23.51
2019-05-13T13:54:22.180Z,23.48
2019-05-13T13:56:55.975Z,22.84
2019-05-13T13:59:28.940Z,23.11
2019-05-13T14:02:05.451Z,22.82
2019-05-13T14:04:36.362Z,22.82
2019-05-13T14:07:03.004Z,26.16
2019-05-13T14:07:27.763Z,21.32
2019-05-13T14:09:43.846Z,21.32
2019-05-13T14:12:16.671Z,21.81
2019-05-13T14:14:51.911Z,21.81
2019-05-13T14:17:24.339Z,22.06
2019-05-13T14:19:57.210Z,23.01
2019-05-13T14:22:32.299Z,21.26
2019-05-13T14:25:05.187Z,21.26
2019-05-13T14:27:38.026Z,20.50
2019-05-13T14:30:11.854Z,20.40
2019-05-13T14:32:44.847Z,19.71
2019-05-13T14:35:18.121Z,20.25
2019-05-13T14:37:51.957Z,20.71
2019-05-13T14:40:24.949Z,20.71
2019-05-13T14:42:57.853Z,19.98
2019-05-13T14:45:31.901Z,19.51
2019-05-13T14:48:04.874Z,19.06
2019-05-13T14:50:37.802Z,18.19
2019-05-13T14:53:10.664Z,17.62
2019-05-13T14:55:43.505Z,17.13
2019-05-13T14:58:16.347Z,17.18
2019-05-13T15:01:07.027Z,16.92
2019-05-13T15:03:23.847Z,16.67
2019-05-13T15:05:56.783Z,16.67
2019-05-13T15:08:32.506Z,16.82
2019-05-13T15:11:04.469Z,16.85
2019-05-13T15:13:37.705Z,16.49
2019-05-13T15:16:10.642Z,16.61
2019-05-13T15:18:43.712Z,16.61
2019-05-13T15:21:16.648Z,16.56
2019-05-13T15:23:51.787Z,16.56
2019-05-13T15:26:24.337Z,16.43
2019-05-13T15:28:57.218Z,16.23
2019-05-13T15:31:31.595Z,16.04
2019-05-13T15:34:04.876Z,16.09
2019-05-13T15:36:38.049Z,16.09
2019-05-13T15:39:11.300Z,15.96
2019-05-13T15:41:44.897Z,16.12
2019-05-13T15:44:17.895Z,16.25
2019-05-13T15:46:52.407Z,16.16
2019-05-13T15:49:25.299Z,15.77
2019-05-13T15:51:58.526Z,15.77
2019-05-13T15:54:32.713Z,15.63
2019-05-13T15:57:05.815Z,15.52
2019-05-13T15:59:41.358Z,15.52
2019-05-13T16:02:13.603Z,15.40
2019-05-13T16:04:52.127Z,15.33
2019-05-13T16:07:21.143Z,15.33
2019-05-13T16:09:54.249Z,15.47
2019-05-13T16:12:27.148Z,15.53
2019-05-13T16:15:02.028Z,15.53
2019-05-13T16:17:41.157Z,15.40
2019-05-13T16:20:10.012Z,15.20
2019-05-13T16:22:42.910Z,15.20
2019-05-13T16:25:16.278Z,15.05
2019-05-13T16:27:49.300Z,15.04
2019-05-13T16:30:22.786Z,14.80
2019-05-13T16:32:55.795Z,14.54
2019-05-13T16:35:28.624Z,14.54
2019-05-13T16:38:01.996Z,14.19
2019-05-13T16:40:36.657Z,14.19
2019-05-13T16:43:12.616Z,14.09
2019-05-13T16:45:44.676Z,14.09
2019-05-13T16:48:17.764Z,14.09
2019-05-13T16:50:50.721Z,14.05
2019-05-13T16:53:25.988Z,14.10
2019-05-13T16:55:58.218Z,14.07
2019-05-13T16:58:32.385Z,13.99
2019-05-13T17:01:05.647Z,13.76
2019-05-13T17:03:41.176Z,13.61
2019-05-13T17:06:13.432Z,13.61
2019-05-13T17:08:46.411Z,13.51
2019-05-13T17:11:19.378Z,13.32
2019-05-13T17:13:52.280Z,13.24
2019-05-13T17:16:25.156Z,13.19
2019-05-13T17:18:58.038Z,13.13
2019-05-13T17:21:31.689Z,13.13
2019-05-13T17:24:04.920Z,13.11
2019-05-13T17:26:37.785Z,13.01
2019-05-13T17:29:12.016Z,13.02
2019-05-13T17:31:45.149Z,12.92
2019-05-13T17:34:18.036Z,12.92
2019-05-13T17:36:51.951Z,12.92
2019-05-13T17:39:25.055Z,12.86
2019-05-13T17:41:57.953Z,12.67
2019-05-13T17:44:31.800Z,12.67
2019-05-13T17:47:05.195Z,12.51
2019-05-13T17:49:38.045Z,12.51
2019-05-13T17:52:11.598Z,12.44
2019-05-13T17:54:44.564Z,12.23
2019-05-13T17:57:17.860Z,12.23
2019-05-13T17:59:52.138Z,12.22
2019-05-13T18:02:25.145Z,12.10
2019-05-13T18:04:58.044Z,12.00
2019-05-13T18:07:32.109Z,12.00
2019-05-13T18:10:05.401Z,11.92
2019-05-13T18:12:38.307Z,11.73
2019-05-13T18:15:12.314Z,11.73
2019-05-13T18:17:45.209Z,11.64
2019-05-13T18:20:18.282Z,11.64
2019-05-13T18:22:52.373Z,11.53
2019-05-13T18:25:25.473Z,11.41
2019-05-13T18:27:58.350Z,11.41
2019-05-13T18:30:31.767Z,11.23
2019-05-13T18:33:04.774Z,11.15
2019-05-13T18:35:37.626Z,11.15
2019-05-13T18:38:11.907Z,11.08
2019-05-13T18:40:44.900Z,11.03
2019-05-13T18:43:17.828Z,10.86
2019-05-13T18:45:52.571Z,10.86
2019-05-13T18:48:25.328Z,10.74
2019-05-13T18:50:58.510Z,10.66
2019-05-13T18:53:32.184Z,10.55
2019-05-13T18:56:05.314Z,10.45
2019-05-13T18:58:38.155Z,10.28
2019-05-13T19:01:11.372Z,10.26
2019-05-13T19:03:44.819Z,10.13
2019-05-13T19:06:17.720Z,10.13
2019-05-13T19:08:52.687Z,10.02
2019-05-13T19:11:25.385Z,9.94
2019-05-13T19:13:58.249Z,9.87
2019-05-13T19:16:31.924Z,9.70
2019-05-13T19:19:12.197Z,9.70
2019-05-13T19:21:41.520Z,9.59
2019-05-13T19:24:14.450Z,9.52
2019-05-13T19:26:47.700Z,9.41
2019-05-13T19:29:21.869Z,9.26
2019-05-13T19:31:54.864Z,9.26
2019-05-13T19:34:27.998Z,9.07
2019-05-13T19:37:02.412Z,9.07
2019-05-13T19:39:35.619Z,9.03
2019-05-13T19:42:08.529Z,8.98
2019-05-13T19:44:42.048Z,8.85
2019-05-13T19:47:15.170Z,8.85
2019-05-13T19:49:48.198Z,8.71
2019-05-13T19:52:21.449Z,8.71
2019-05-13T19:54:54.754Z,8.64
2019-05-13T19:57:27.672Z,8.56
2019-05-13T20:00:01.381Z,8.46
2019-05-13T20:02:34.761Z,8.41
2019-05-13T20:05:07.903Z,8.34
2019-05-13T20:07:41.994Z,8.27
2019-05-13T20:10:15.344Z,8.21
2019-05-13T20:12:48.379Z,8.14
2019-05-13T20:15:22.071Z,8.14
2019-05-13T20:17:55.361Z,8.10
2019-05-13T20:20:28.580Z,8.06
2019-05-13T20:23:01.676Z,8.06
2019-05-13T20:25:35.021Z,7.96
2019-05-13T20:28:08.792Z,7.85
2019-05-13T20:30:43.803Z,7.82
2019-05-13T20:33:16.400Z,7.76
2019-05-13T20:35:49.246Z,7.71
2019-05-13T20:38:22.304Z,7.64
2019-05-13T20:40:55.497Z,7.49
2019-05-13T20:43:28.478Z,7.49
2019-05-13T20:46:02.172Z,7.46
2019-05-13T20:48:35.360Z,7.38
2019-05-13T20:51:08.567Z,7.32
2019-05-13T20:53:41.633Z,7.27
2019-05-13T20:56:14.610Z,7.16
2019-05-13T20:58:47.714Z,7.16
2019-05-13T21:01:20.697Z,7.13
2019-05-13T21:03:53.620Z,7.08
2019-05-13T21:06:26.609Z,7.01
2019-05-13T21:09:01.533Z,6.95
2019-05-13T21:11:35.051Z,6.91
2019-05-13T21:14:07.995Z,6.88
2019-05-13T21:16:41.809Z,6.82
2019-05-13T21:19:15.183Z,6.77
2019-05-13T21:21:48.090Z,6.75
2019-05-13T21:24:21.420Z,6.69
2019-05-13T21:26:54.443Z,6.62
2019-05-13T21:29:27.400Z,6.62
2019-05-13T21:32:01.156Z,6.54
2019-05-13T21:34:34.137Z,6.44
2019-05-13T21:37:07.007Z,6.34
2019-05-13T21:39:41.279Z,6.32
2019-05-13T21:42:14.388Z,6.28
2019-05-13T21:44:47.300Z,6.29
2019-05-13T21:47:22.004Z,6.28
2019-05-13T21:49:55.243Z,6.28
2019-05-13T21:52:28.177Z,6.23
2019-05-13T21:55:01.854Z,6.16
2019-05-13T21:57:34.930Z,6.13
2019-05-13T22:00:08.583Z,6.10
2019-05-13T22:02:41.595Z,6.10
2019-05-13T22:05:14.666Z,6.10
2019-05-13T22:07:47.579Z,6.09
2019-05-13T22:10:21.603Z,6.06
2019-05-13T22:12:54.721Z,6.03
2019-05-13T22:15:27.807Z,5.82
2019-05-13T22:18:01.893Z,5.82
2019-05-13T22:20:48.989Z,5.78
2019-05-13T22:23:11.932Z,5.75
2019-05-13T22:25:44.967Z,5.75
2019-05-13T22:28:17.919Z,5.80
2019-05-13T22:30:51.801Z,5.79
2019-05-13T22:33:25.372Z,5.74
2019-05-13T22:35:58.349Z,5.73
2019-05-13T22:38:32.258Z,5.73
2019-05-13T22:41:05.714Z,5.70
2019-05-13T22:43:52.460Z,5.65
2019-05-13T22:46:14.213Z,5.62
2019-05-13T22:48:47.278Z,5.60
2019-05-13T22:51:21.388Z,5.49
2019-05-13T22:53:54.838Z,5.49
2019-05-13T22:56:27.749Z,5.37
2019-05-13T22:59:02.103Z,5.37
2019-05-13T23:01:35.146Z,5.34
2019-05-13T23:04:08.203Z,5.30
2019-05-13T23:06:41.404Z,5.20
2019-05-13T23:09:14.281Z,5.20
2019-05-13T23:11:47.208Z,5.09
2019-05-13T23:14:22.025Z,5.07
2019-05-13T23:16:54.889Z,4.93
2019-05-13T23:19:28.140Z,4.95
2019-05-13T23:22:01.580Z,4.86
2019-05-13T23:24:34.568Z,4.86
2019-05-13T23:27:07.579Z,4.80
2019-05-13T23:29:41.257Z,4.73
2019-05-13T23:32:14.323Z,4.73
2019-05-13T23:34:47.172Z,4.68
2019-05-13T23:37:21.839Z,4.59
2019-05-13T23:39:54.559Z,4.59
2019-05-13T23:42:27.429Z,4.24
2019-05-13T23:45:00.265Z,4.20
2019-05-13T23:47:33.262Z,4.10
2019-05-13T23:50:06.659Z,4.05
2019-05-13T23:52:41.821Z,4.03
2019-05-13T23:55:14.864Z,4.03
2019-05-13T23:57:47.711Z,4.02
